sensor_id;sensor_type;location;lat;lon;timestamp;pressure;altitude;pressure_sealevel;temperature;humidity
66801;BME280;53703;50.326;19.122;2023-04-04T00:01:04;99350.74;;;18.27;40.10
66801;BME280;53703;50.326;19.122;2023-04-04T00:03:58;99353.15;;;18.26;40.07
66801;BME280;53703;50.326;19.122;2023-04-04T00:06:52;99353.30;;;18.28;39.93
66801;BME280;53703;50.326;19.122;2023-04-04T00:09:46;99351.86;;;18.27;39.83
66801;BME280;53703;50.326;19.122;2023-04-04T00:12:40;99349.35;;;18.26;40.08
66801;BME280;53703;50.326;19.122;2023-04-04T00:15:34;99349.09;;;18.27;40.20
66801;BME280;53703;50.326;19.122;2023-04-04T00:18:28;99343.42;;;18.23;39.97
66801;BME280;53703;50.326;19.122;2023-04-04T00:21:21;99348.11;;;18.22;40.15
66801;BME280;53703;50.326;19.122;2023-04-04T00:24:16;99340.08;;;18.23;40.24
66801;BME280;53703;50.326;19.122;2023-04-04T00:27:10;99337.30;;;18.20;39.80
66801;BME280;53703;50.326;19.122;2023-04-04T00:30:06;99335.91;;;18.23;40.08
66801;BME280;53703;50.326;19.122;2023-04-04T00:33:00;99335.63;;;18.22;40.00
66801;BME280;53703;50.326;19.122;2023-04-04T00:35:55;99336.33;;;18.19;40.07
66801;BME280;53703;50.326;19.122;2023-04-04T00:38:48;99336.67;;;18.20;39.85
66801;BME280;53703;50.326;19.122;2023-04-04T00:41:43;99334.86;;;18.20;39.84
66801;BME280;53703;50.326;19.122;2023-04-04T00:44:37;99339.09;;;18.19;39.91
66801;BME280;53703;50.326;19.122;2023-04-04T00:47:33;99341.90;;;18.18;39.93
66801;BME280;53703;50.326;19.122;2023-04-04T00:50:27;99345.66;;;18.18;40.09
66801;BME280;53703;50.326;19.122;2023-04-04T00:53:24;99348.76;;;18.16;39.90
66801;BME280;53703;50.326;19.122;2023-04-04T00:56:18;99350.21;;;18.19;40.00
66801;BME280;53703;50.326;19.122;2023-04-04T00:59:14;99351.34;;;18.20;39.85
66801;BME280;53703;50.326;19.122;2023-04-04T01:02:08;99350.75;;;18.15;39.78
66801;BME280;53703;50.326;19.122;2023-04-04T01:05:03;99349.73;;;18.15;39.93
66801;BME280;53703;50.326;19.122;2023-04-04T01:07:57;99351.05;;;18.13;40.04
66801;BME280;53703;50.326;19.122;2023-04-04T01:10:51;99348.66;;;18.10;39.91
66801;BME280;53703;50.326;19.122;2023-04-04T01:13:45;99346.58;;;18.11;39.89
66801;BME280;53703;50.326;19.122;2023-04-04T01:16:41;99346.23;;;18.13;39.65
66801;BME280;53703;50.326;19.122;2023-04-04T01:19:37;99347.63;;;18.14;39.90
66801;BME280;53703;50.326;19.122;2023-04-04T01:22:36;99346.65;;;18.13;39.63
66801;BME280;53703;50.326;19.122;2023-04-04T01:25:32;99343.86;;;18.10;39.59
66801;BME280;53703;50.326;19.122;2023-04-04T01:28:26;99344.79;;;18.14;39.75
66801;BME280;53703;50.326;19.122;2023-04-04T01:31:25;99346.33;;;18.05;39.79
66801;BME280;53703;50.326;19.122;2023-04-04T01:34:29;99346.34;;;18.06;39.72
66801;BME280;53703;50.326;19.122;2023-04-04T01:37:35;99346.92;;;18.04;39.73
66801;BME280;53703;50.326;19.122;2023-04-04T01:40:32;99350.67;;;18.05;39.86
66801;BME280;53703;50.326;19.122;2023-04-04T01:43:30;99351.16;;;18.04;39.96
66801;BME280;53703;50.326;19.122;2023-04-04T01:46:24;99348.08;;;18.05;39.73
66801;BME280;53703;50.326;19.122;2023-04-04T01:49:18;99351.79;;;18.04;39.65
66801;BME280;53703;50.326;19.122;2023-04-04T01:52:12;99353.55;;;18.02;39.87
66801;BME280;53703;50.326;19.122;2023-04-04T01:55:06;99358.80;;;18.02;39.86
66801;BME280;53703;50.326;19.122;2023-04-04T01:58:00;99361.11;;;18.02;39.65
66801;BME280;53703;50.326;19.122;2023-04-04T02:00:54;99360.31;;;18.00;39.84
66801;BME280;53703;50.326;19.122;2023-04-04T02:03:49;99365.03;;;17.99;39.74
66801;BME280;53703;50.326;19.122;2023-04-04T02:06:42;99365.13;;;17.98;39.66
66801;BME280;53703;50.326;19.122;2023-04-04T02:09:36;99366.67;;;17.95;39.72
66801;BME280;53703;50.326;19.122;2023-04-04T02:12:30;99366.79;;;17.98;39.72
66801;BME280;53703;50.326;19.122;2023-04-04T02:15:25;99373.58;;;17.98;39.64
66801;BME280;53703;50.326;19.122;2023-04-04T02:18:18;99368.33;;;17.95;39.76
66801;BME280;53703;50.326;19.122;2023-04-04T02:21:12;99366.58;;;17.95;39.66
66801;BME280;53703;50.326;19.122;2023-04-04T02:24:07;99369.53;;;17.94;39.63
66801;BME280;53703;50.326;19.122;2023-04-04T02:27:01;99368.08;;;17.93;39.63
66801;BME280;53703;50.326;19.122;2023-04-04T02:29:55;99366.25;;;17.96;39.61
66801;BME280;53703;50.326;19.122;2023-04-04T02:32:49;99366.94;;;17.94;39.63
66801;BME280;53703;50.326;19.122;2023-04-04T02:35:43;99362.05;;;17.96;39.36
66801;BME280;53703;50.326;19.122;2023-04-04T02:38:19;99360.45;;;18.00;39.49
66801;BME280;53703;50.326;19.122;2023-04-04T02:41:14;99360.63;;;17.94;39.41
66801;BME280;53703;50.326;19.122;2023-04-04T02:44:07;99366.36;;;17.92;39.46
66801;BME280;53703;50.326;19.122;2023-04-04T02:47:02;99364.43;;;17.93;39.60
66801;BME280;53703;50.326;19.122;2023-04-04T02:49:56;99364.47;;;17.93;39.40
66801;BME280;53703;50.326;19.122;2023-04-04T02:52:50;99368.15;;;17.91;39.50
66801;BME280;53703;50.326;19.122;2023-04-04T02:55:46;99366.49;;;17.88;39.60
66801;BME280;53703;50.326;19.122;2023-04-04T02:58:40;99369.59;;;17.89;39.50
66801;BME280;53703;50.326;19.122;2023-04-04T03:01:34;99368.27;;;17.85;39.68
66801;BME280;53703;50.326;19.122;2023-04-04T03:04:28;99369.03;;;17.84;39.60
66801;BME280;53703;50.326;19.122;2023-04-04T03:07:21;99365.27;;;17.82;39.57
66801;BME280;53703;50.326;19.122;2023-04-04T03:10:15;99365.41;;;17.86;39.38
66801;BME280;53703;50.326;19.122;2023-04-04T03:13:09;99366.44;;;17.90;39.29
66801;BME280;53703;50.326;19.122;2023-04-04T03:16:04;99366.48;;;17.85;39.46
66801;BME280;53703;50.326;19.122;2023-04-04T03:18:59;99362.06;;;17.85;39.36
66801;BME280;53703;50.326;19.122;2023-04-04T03:21:35;99360.13;;;17.82;39.45
66801;BME280;53703;50.326;19.122;2023-04-04T03:24:29;99363.05;;;17.82;39.48
66801;BME280;53703;50.326;19.122;2023-04-04T03:27:22;99363.29;;;17.80;39.43
66801;BME280;53703;50.326;19.122;2023-04-04T03:30:16;99363.29;;;17.80;39.41
66801;BME280;53703;50.326;19.122;2023-04-04T03:33:10;99363.78;;;17.76;39.46
66801;BME280;53703;50.326;19.122;2023-04-04T03:36:08;99361.85;;;17.82;39.20
66801;BME280;53703;50.326;19.122;2023-04-04T03:39:00;99360.02;;;17.83;39.13
66801;BME280;53703;50.326;19.122;2023-04-04T03:41:54;99358.72;;;17.84;39.01
66801;BME280;53703;50.326;19.122;2023-04-04T03:44:47;99361.02;;;17.80;38.96
66801;BME280;53703;50.326;19.122;2023-04-04T03:47:41;99357.92;;;17.80;39.27
66801;BME280;53703;50.326;19.122;2023-04-04T03:50:35;99360.48;;;17.81;39.19
66801;BME280;53703;50.326;19.122;2023-04-04T03:53:29;99358.10;;;17.76;39.19
66801;BME280;53703;50.326;19.122;2023-04-04T03:56:23;99359.09;;;17.80;39.15
66801;BME280;53703;50.326;19.122;2023-04-04T03:59:17;99358.21;;;17.75;39.09
66801;BME280;53703;50.326;19.122;2023-04-04T04:02:10;99353.63;;;17.75;38.94
66801;BME280;53703;50.326;19.122;2023-04-04T04:05:05;99353.25;;;17.73;39.32
66801;BME280;53703;50.326;19.122;2023-04-04T04:07:58;99351.40;;;17.85;38.88
66801;BME280;53703;50.326;19.122;2023-04-04T04:10:52;99353.07;;;17.85;39.16
66801;BME280;53703;50.326;19.122;2023-04-04T04:13:46;99354.86;;;17.73;39.51
66801;BME280;53703;50.326;19.122;2023-04-04T04:16:42;99352.36;;;17.67;39.42
66801;BME280;53703;50.326;19.122;2023-04-04T04:19:36;99347.80;;;17.71;38.47
66801;BME280;53703;50.326;19.122;2023-04-04T04:22:29;99347.99;;;17.78;38.43
66801;BME280;53703;50.326;19.122;2023-04-04T04:25:24;99343.62;;;17.83;38.89
66801;BME280;53703;50.326;19.122;2023-04-04T04:28:18;99340.83;;;17.83;39.29
66801;BME280;53703;50.326;19.122;2023-04-04T04:31:12;99340.14;;;17.75;40.18
66801;BME280;53703;50.326;19.122;2023-04-04T04:34:08;99338.96;;;17.77;40.78
66801;BME280;53703;50.326;19.122;2023-04-04T04:37:02;99339.84;;;17.72;40.72
66801;BME280;53703;50.326;19.122;2023-04-04T04:39:55;99341.46;;;17.71;41.59
66801;BME280;53703;50.326;19.122;2023-04-04T04:42:49;99340.67;;;17.73;40.72
66801;BME280;53703;50.326;19.122;2023-04-04T04:45:44;99344.91;;;17.67;40.73
66801;BME280;53703;50.326;19.122;2023-04-04T04:48:38;99345.60;;;17.66;40.44
66801;BME280;53703;50.326;19.122;2023-04-04T04:51:31;99347.33;;;17.66;39.94
66801;BME280;53703;50.326;19.122;2023-04-04T04:54:25;99348.23;;;17.67;39.60
66801;BME280;53703;50.326;19.122;2023-04-04T04:57:19;99347.80;;;17.64;39.97
66801;BME280;53703;50.326;19.122;2023-04-04T05:00:15;99351.58;;;17.64;40.09
66801;BME280;53703;50.326;19.122;2023-04-04T05:03:09;99357.51;;;17.66;40.02
66801;BME280;53703;50.326;19.122;2023-04-04T05:06:03;99357.25;;;17.62;40.11
66801;BME280;53703;50.326;19.122;2023-04-04T05:08:57;99357.76;;;17.63;39.65
66801;BME280;53703;50.326;19.122;2023-04-04T05:11:51;99360.82;;;17.64;39.79
66801;BME280;53703;50.326;19.122;2023-04-04T05:14:45;99361.89;;;17.63;39.62
66801;BME280;53703;50.326;19.122;2023-04-04T05:17:39;99360.73;;;17.62;39.64
66801;BME280;53703;50.326;19.122;2023-04-04T05:20:33;99360.28;;;17.76;40.07
66801;BME280;53703;50.326;19.122;2023-04-04T05:23:27;99361.88;;;17.67;39.33
66801;BME280;53703;50.326;19.122;2023-04-04T05:26:21;99366.04;;;17.63;39.23
66801;BME280;53703;50.326;19.122;2023-04-04T05:29:15;99362.97;;;17.61;39.19
66801;BME280;53703;50.326;19.122;2023-04-04T05:32:08;99356.27;;;17.70;39.88
66801;BME280;53703;50.326;19.122;2023-04-04T05:35:02;99361.14;;;17.72;39.42
66801;BME280;53703;50.326;19.122;2023-04-04T05:37:56;99364.60;;;17.60;39.15
66801;BME280;53703;50.326;19.122;2023-04-04T05:40:50;99363.38;;;17.60;38.92
66801;BME280;53703;50.326;19.122;2023-04-04T05:43:45;99363.29;;;17.61;39.46
66801;BME280;53703;50.326;19.122;2023-04-04T05:46:39;99362.02;;;17.70;39.52
66801;BME280;53703;50.326;19.122;2023-04-04T05:49:32;99365.95;;;17.72;39.63
66801;BME280;53703;50.326;19.122;2023-04-04T05:52:26;99369.52;;;17.65;38.96
66801;BME280;53703;50.326;19.122;2023-04-04T05:55:20;99372.00;;;17.40;38.51
66801;BME280;53703;50.326;19.122;2023-04-04T05:58:14;99368.17;;;17.42;38.99
66801;BME280;53703;50.326;19.122;2023-04-04T06:01:10;99365.60;;;17.46;38.78
66801;BME280;53703;50.326;19.122;2023-04-04T06:04:03;99367.81;;;17.46;38.65
66801;BME280;53703;50.326;19.122;2023-04-04T06:06:57;99372.33;;;17.43;38.91
66801;BME280;53703;50.326;19.122;2023-04-04T06:09:52;99373.44;;;17.40;38.66
66801;BME280;53703;50.326;19.122;2023-04-04T06:12:45;99369.94;;;17.34;38.88
66801;BME280;53703;50.326;19.122;2023-04-04T06:15:39;99364.79;;;17.36;38.70
66801;BME280;53703;50.326;19.122;2023-04-04T06:18:33;99368.91;;;17.37;38.29
66801;BME280;53703;50.326;19.122;2023-04-04T06:21:26;99374.02;;;17.57;38.35
66801;BME280;53703;50.326;19.122;2023-04-04T06:24:21;99372.05;;;17.61;38.10
66801;BME280;53703;50.326;19.122;2023-04-04T06:27:14;99368.75;;;16.33;37.89
66801;BME280;53703;50.326;19.122;2023-04-04T06:30:10;99365.77;;;15.77;36.29
66801;BME280;53703;50.326;19.122;2023-04-04T06:33:06;99360.81;;;16.58;36.59
66801;BME280;53703;50.326;19.122;2023-04-04T06:35:59;99359.19;;;17.18;36.99
66801;BME280;53703;50.326;19.122;2023-04-04T06:38:53;99359.71;;;17.36;39.36
66801;BME280;53703;50.326;19.122;2023-04-04T06:41:48;99362.91;;;17.44;39.04
66801;BME280;53703;50.326;19.122;2023-04-04T06:44:41;99361.38;;;17.36;39.20
66801;BME280;53703;50.326;19.122;2023-04-04T06:47:35;99362.20;;;17.42;39.16
66801;BME280;53703;50.326;19.122;2023-04-04T06:50:31;99358.57;;;17.52;38.76
66801;BME280;53703;50.326;19.122;2023-04-04T06:53:25;99359.52;;;17.48;39.07
66801;BME280;53703;50.326;19.122;2023-04-04T06:56:19;99357.13;;;17.45;38.62
66801;BME280;53703;50.326;19.122;2023-04-04T06:59:12;99358.76;;;17.58;38.36
66801;BME280;53703;50.326;19.122;2023-04-04T07:02:06;99359.46;;;17.50;38.39
66801;BME280;53703;50.326;19.122;2023-04-04T07:05:00;99361.29;;;17.47;38.57
66801;BME280;53703;50.326;19.122;2023-04-04T07:07:55;99357.25;;;17.47;38.10
66801;BME280;53703;50.326;19.122;2023-04-04T07:10:49;99362.47;;;17.51;38.41
66801;BME280;53703;50.326;19.122;2023-04-04T07:13:43;99362.80;;;17.49;38.41
66801;BME280;53703;50.326;19.122;2023-04-04T07:16:37;99356.40;;;17.51;38.16
66801;BME280;53703;50.326;19.122;2023-04-04T07:19:30;99356.20;;;17.50;38.00
66801;BME280;53703;50.326;19.122;2023-04-04T07:22:24;99358.63;;;17.53;37.93
66801;BME280;53703;50.326;19.122;2023-04-04T07:25:18;99361.75;;;17.50;37.94
66801;BME280;53703;50.326;19.122;2023-04-04T07:28:14;99359.87;;;17.51;37.75
66801;BME280;53703;50.326;19.122;2023-04-04T07:31:08;99361.60;;;17.57;37.86
66801;BME280;53703;50.326;19.122;2023-04-04T07:34:02;99359.37;;;17.56;37.78
66801;BME280;53703;50.326;19.122;2023-04-04T07:36:56;99360.13;;;17.57;37.82
66801;BME280;53703;50.326;19.122;2023-04-04T07:39:50;99363.09;;;17.60;37.81
66801;BME280;53703;50.326;19.122;2023-04-04T07:42:47;99357.27;;;17.62;37.68
66801;BME280;53703;50.326;19.122;2023-04-04T07:45:42;99356.66;;;17.61;37.40
66801;BME280;53703;50.326;19.122;2023-04-04T07:48:36;99362.70;;;17.62;37.57
66801;BME280;53703;50.326;19.122;2023-04-04T07:51:29;99356.47;;;17.60;37.81
66801;BME280;53703;50.326;19.122;2023-04-04T07:54:23;99356.41;;;17.64;37.55
66801;BME280;53703;50.326;19.122;2023-04-04T07:57:18;99351.63;;;17.63;37.15
66801;BME280;53703;50.326;19.122;2023-04-04T08:00:14;99348.98;;;17.56;37.95
66801;BME280;53703;50.326;19.122;2023-04-04T08:03:09;99347.44;;;17.59;38.17
66801;BME280;53703;50.326;19.122;2023-04-04T08:06:04;99345.51;;;17.58;37.09
66801;BME280;53703;50.326;19.122;2023-04-04T08:08:58;99350.20;;;17.38;37.05
66801;BME280;53703;50.326;19.122;2023-04-04T08:11:52;99347.98;;;17.51;37.06
66801;BME280;53703;50.326;19.122;2023-04-04T08:14:45;99343.64;;;17.49;36.85
66801;BME280;53703;50.326;19.122;2023-04-04T08:17:39;99335.46;;;17.44;37.49
66801;BME280;53703;50.326;19.122;2023-04-04T08:20:34;99329.91;;;17.49;37.91
66801;BME280;53703;50.326;19.122;2023-04-04T08:23:29;99325.64;;;17.45;38.45
66801;BME280;53703;50.326;19.122;2023-04-04T08:26:23;99334.15;;;17.62;40.55
66801;BME280;53703;50.326;19.122;2023-04-04T08:29:17;99336.36;;;17.54;41.91
66801;BME280;53703;50.326;19.122;2023-04-04T08:32:10;99332.66;;;17.41;40.03
66801;BME280;53703;50.326;19.122;2023-04-04T08:35:05;99336.63;;;17.43;39.00
66801;BME280;53703;50.326;19.122;2023-04-04T08:37:59;99335.55;;;17.54;40.77
66801;BME280;53703;50.326;19.122;2023-04-04T08:40:57;99336.69;;;17.52;39.76
66801;BME280;53703;50.326;19.122;2023-04-04T08:43:53;99331.20;;;17.50;39.81
66801;BME280;53703;50.326;19.122;2023-04-04T08:46:49;99330.39;;;17.53;41.41
66801;BME280;53703;50.326;19.122;2023-04-04T08:49:46;99331.94;;;17.48;40.39
66801;BME280;53703;50.326;19.122;2023-04-04T08:52:48;99328.94;;;17.39;40.11
66801;BME280;53703;50.326;19.122;2023-04-04T08:55:42;99324.92;;;17.39;40.83
66801;BME280;53703;50.326;19.122;2023-04-04T08:58:36;99326.95;;;17.40;40.11
66801;BME280;53703;50.326;19.122;2023-04-04T09:01:30;99322.27;;;17.36;39.92
66801;BME280;53703;50.326;19.122;2023-04-04T09:04:25;99318.00;;;17.37;39.57
66801;BME280;53703;50.326;19.122;2023-04-04T09:07:19;99316.95;;;17.43;39.63
66801;BME280;53703;50.326;19.122;2023-04-04T09:10:13;99317.67;;;17.37;39.63
66801;BME280;53703;50.326;19.122;2023-04-04T09:13:07;99317.24;;;17.39;40.25
66801;BME280;53703;50.326;19.122;2023-04-04T09:16:08;99316.63;;;17.50;39.97
66801;BME280;53703;50.326;19.122;2023-04-04T09:19:02;99313.53;;;17.53;39.30
66801;BME280;53703;50.326;19.122;2023-04-04T09:21:55;99316.00;;;17.43;39.21
66801;BME280;53703;50.326;19.122;2023-04-04T09:24:50;99309.02;;;17.36;39.27
66801;BME280;53703;50.326;19.122;2023-04-04T09:27:45;99309.35;;;17.34;39.21
66801;BME280;53703;50.326;19.122;2023-04-04T09:30:41;99311.34;;;17.42;39.86
66801;BME280;53703;50.326;19.122;2023-04-04T09:33:37;99317.58;;;17.25;38.61
66801;BME280;53703;50.326;19.122;2023-04-04T09:36:31;99319.76;;;17.19;39.07
66801;BME280;53703;50.326;19.122;2023-04-04T09:39:25;99321.61;;;17.24;39.13
66801;BME280;53703;50.326;19.122;2023-04-04T09:42:18;99319.17;;;17.08;40.77
66801;BME280;53703;50.326;19.122;2023-04-04T09:45:14;99318.81;;;17.01;40.61
66801;BME280;53703;50.326;19.122;2023-04-04T09:48:30;99314.85;;;17.05;41.76
66801;BME280;53703;50.326;19.122;2023-04-04T09:51:26;99315.91;;;17.07;41.26
66801;BME280;53703;50.326;19.122;2023-04-04T09:54:27;99315.34;;;17.12;40.60
66801;BME280;53703;50.326;19.122;2023-04-04T09:57:23;99321.12;;;17.11;40.87
66801;BME280;53703;50.326;19.122;2023-04-04T10:00:21;99314.72;;;17.27;39.49
66801;BME280;53703;50.326;19.122;2023-04-04T10:03:15;99312.24;;;17.35;39.27
66801;BME280;53703;50.326;19.122;2023-04-04T10:06:10;99311.99;;;17.28;39.20
66801;BME280;53703;50.326;19.122;2023-04-04T10:09:04;99310.41;;;17.27;39.18
66801;BME280;53703;50.326;19.122;2023-04-04T10:12:11;99308.20;;;17.25;39.39
66801;BME280;53703;50.326;19.122;2023-04-04T10:15:08;99303.89;;;17.37;39.44
66801;BME280;53703;50.326;19.122;2023-04-04T10:18:02;99312.52;;;17.25;39.30
66801;BME280;53703;50.326;19.122;2023-04-04T10:20:58;99311.58;;;17.23;39.29
66801;BME280;53703;50.326;19.122;2023-04-04T10:24:06;99315.44;;;17.38;39.98
66801;BME280;53703;50.326;19.122;2023-04-04T10:27:01;99308.64;;;17.44;39.60
66801;BME280;53703;50.326;19.122;2023-04-04T10:29:58;99308.64;;;17.19;39.57
66801;BME280;53703;50.326;19.122;2023-04-04T10:33:04;99305.95;;;17.14;39.26
66801;BME280;53703;50.326;19.122;2023-04-04T10:36:02;99305.86;;;17.10;39.70
66801;BME280;53703;50.326;19.122;2023-04-04T10:39:14;99302.56;;;17.10;39.52
66801;BME280;53703;50.326;19.122;2023-04-04T10:42:11;99301.98;;;17.09;39.28
66801;BME280;53703;50.326;19.122;2023-04-04T10:44:50;99301.87;;;17.10;39.09
66801;BME280;53703;50.326;19.122;2023-04-04T10:47:45;99302.39;;;17.11;39.03
66801;BME280;53703;50.326;19.122;2023-04-04T10:50:40;99301.71;;;17.08;39.06
66801;BME280;53703;50.326;19.122;2023-04-04T10:53:27;99305.99;;;17.09;39.16
66801;BME280;53703;50.326;19.122;2023-04-04T10:56:21;99310.32;;;17.09;38.86
66801;BME280;53703;50.326;19.122;2023-04-04T10:59:16;99305.05;;;17.06;38.81
66801;BME280;53703;50.326;19.122;2023-04-04T11:02:10;99301.58;;;17.07;39.26
66801;BME280;53703;50.326;19.122;2023-04-04T11:05:17;99299.56;;;17.13;39.15
66801;BME280;53703;50.326;19.122;2023-04-04T11:08:14;99296.29;;;17.12;38.72
66801;BME280;53703;50.326;19.122;2023-04-04T11:11:08;99298.32;;;17.02;38.86
66801;BME280;53703;50.326;19.122;2023-04-04T11:14:14;99296.84;;;17.02;39.06
66801;BME280;53703;50.326;19.122;2023-04-04T11:17:09;99293.65;;;17.03;38.79
66801;BME280;53703;50.326;19.122;2023-04-04T11:20:05;99289.70;;;17.03;38.92
66801;BME280;53703;50.326;19.122;2023-04-04T11:23:15;99294.48;;;17.01;38.84
66801;BME280;53703;50.326;19.122;2023-04-04T11:26:10;99288.98;;;17.03;38.63
66801;BME280;53703;50.326;19.122;2023-04-04T11:29:05;99293.40;;;17.00;38.80
66801;BME280;53703;50.326;19.122;2023-04-04T11:32:00;99290.12;;;17.01;38.54
66801;BME280;53703;50.326;19.122;2023-04-04T11:34:56;99288.95;;;17.00;38.69
66801;BME280;53703;50.326;19.122;2023-04-04T11:38:02;99286.90;;;17.00;38.60
66801;BME280;53703;50.326;19.122;2023-04-04T11:40:56;99279.81;;;16.98;38.84
66801;BME280;53703;50.326;19.122;2023-04-04T11:43:51;99282.92;;;16.95;38.87
66801;BME280;53703;50.326;19.122;2023-04-04T11:46:45;99273.38;;;16.97;38.83
66801;BME280;53703;50.326;19.122;2023-04-04T11:49:44;99275.65;;;16.96;38.73
66801;BME280;53703;50.326;19.122;2023-04-04T11:52:39;99275.91;;;16.94;38.84
66801;BME280;53703;50.326;19.122;2023-04-04T11:55:37;99279.19;;;16.96;38.94
66801;BME280;53703;50.326;19.122;2023-04-04T11:58:51;99273.67;;;17.10;38.75
66801;BME280;53703;50.326;19.122;2023-04-04T12:02:00;99270.25;;;17.08;38.48
66801;BME280;53703;50.326;19.122;2023-04-04T12:04:54;99267.16;;;17.00;38.56
66801;BME280;53703;50.326;19.122;2023-04-04T12:07:48;99265.95;;;16.98;38.68
66801;BME280;53703;50.326;19.122;2023-04-04T12:10:42;99267.85;;;17.03;39.17
66801;BME280;53703;50.326;19.122;2023-04-04T12:13:42;99274.69;;;16.94;38.11
66801;BME280;53703;50.326;19.122;2023-04-04T12:16:38;99275.63;;;16.89;38.31
66801;BME280;53703;50.326;19.122;2023-04-04T12:19:37;99277.35;;;16.90;38.66
66801;BME280;53703;50.326;19.122;2023-04-04T12:22:35;99282.80;;;16.89;38.85
66801;BME280;53703;50.326;19.122;2023-04-04T12:25:29;99280.38;;;16.91;39.40
66801;BME280;53703;50.326;19.122;2023-04-04T12:28:25;99277.56;;;16.95;39.36
66801;BME280;53703;50.326;19.122;2023-04-04T12:31:19;99275.73;;;16.98;39.76
66801;BME280;53703;50.326;19.122;2023-04-04T12:34:20;99270.11;;;17.03;39.79
66801;BME280;53703;50.326;19.122;2023-04-04T12:37:15;99275.38;;;17.08;40.31
66801;BME280;53703;50.326;19.122;2023-04-04T12:40:12;99268.52;;;16.94;39.66
66801;BME280;53703;50.326;19.122;2023-04-04T12:43:18;99268.23;;;16.93;39.93
66801;BME280;53703;50.326;19.122;2023-04-04T12:46:12;99276.25;;;16.88;39.59
66801;BME280;53703;50.326;19.122;2023-04-04T12:49:09;99277.09;;;16.19;38.44
66801;BME280;53703;50.326;19.122;2023-04-04T12:52:04;99283.28;;;16.55;38.72
66801;BME280;53703;50.326;19.122;2023-04-04T12:55:05;99293.07;;;16.75;39.43
66801;BME280;53703;50.326;19.122;2023-04-04T12:58:02;99291.70;;;16.74;39.54
66801;BME280;53703;50.326;19.122;2023-04-04T13:00:59;99290.63;;;16.79;39.33
66801;BME280;53703;50.326;19.122;2023-04-04T13:03:53;99282.88;;;16.82;39.11
66801;BME280;53703;50.326;19.122;2023-04-04T13:06:48;99282.84;;;16.84;38.66
66801;BME280;53703;50.326;19.122;2023-04-04T13:09:53;99284.34;;;16.86;38.46
66801;BME280;53703;50.326;19.122;2023-04-04T13:13:00;99287.34;;;16.88;38.68
66801;BME280;53703;50.326;19.122;2023-04-04T13:15:55;99282.03;;;17.15;38.29
66801;BME280;53703;50.326;19.122;2023-04-04T13:18:48;99278.98;;;17.13;38.21
66801;BME280;53703;50.326;19.122;2023-04-04T13:21:42;99277.81;;;17.17;38.33
66801;BME280;53703;50.326;19.122;2023-04-04T13:24:36;99283.95;;;17.15;38.19
66801;BME280;53703;50.326;19.122;2023-04-04T13:27:32;99289.15;;;17.16;38.49
66801;BME280;53703;50.326;19.122;2023-04-04T13:30:26;99291.05;;;17.29;38.34
66801;BME280;53703;50.326;19.122;2023-04-04T13:33:21;99285.45;;;17.28;38.03
66801;BME280;53703;50.326;19.122;2023-04-04T13:36:14;99290.34;;;17.40;36.95
66801;BME280;53703;50.326;19.122;2023-04-04T13:39:08;99288.27;;;17.41;38.97
66801;BME280;53703;50.326;19.122;2023-04-04T13:42:02;99294.46;;;17.40;39.29
66801;BME280;53703;50.326;19.122;2023-04-04T13:44:56;99300.58;;;17.53;38.19
66801;BME280;53703;50.326;19.122;2023-04-04T13:47:49;99297.17;;;17.62;38.74
66801;BME280;53703;50.326;19.122;2023-04-04T13:50:45;99296.39;;;17.62;38.23
66801;BME280;53703;50.326;19.122;2023-04-04T13:53:42;99292.44;;;17.60;40.54
66801;BME280;53703;50.326;19.122;2023-04-04T13:56:36;99296.46;;;17.68;41.00
66801;BME280;53703;50.326;19.122;2023-04-04T13:59:30;99293.80;;;17.70;39.28
66801;BME280;53703;50.326;19.122;2023-04-04T14:02:24;99290.35;;;17.71;39.29
66801;BME280;53703;50.326;19.122;2023-04-04T14:05:18;99290.68;;;17.75;40.25
66801;BME280;53703;50.326;19.122;2023-04-04T14:08:12;99287.42;;;17.76;40.56
66801;BME280;53703;50.326;19.122;2023-04-04T14:11:07;99288.30;;;17.75;40.95
66801;BME280;53703;50.326;19.122;2023-04-04T14:13:45;99284.81;;;17.76;40.75
66801;BME280;53703;50.326;19.122;2023-04-04T14:16:39;99277.16;;;17.80;41.53
66801;BME280;53703;50.326;19.122;2023-04-04T14:19:33;99274.33;;;17.80;42.40
66801;BME280;53703;50.326;19.122;2023-04-04T14:22:27;99274.83;;;17.95;41.45
66801;BME280;53703;50.326;19.122;2023-04-04T14:25:20;99281.80;;;17.86;42.47
66801;BME280;53703;50.326;19.122;2023-04-04T14:28:14;99280.31;;;17.75;43.56
66801;BME280;53703;50.326;19.122;2023-04-04T14:31:08;99280.16;;;17.76;43.10
66801;BME280;53703;50.326;19.122;2023-04-04T14:34:03;99280.15;;;17.79;42.65
66801;BME280;53703;50.326;19.122;2023-04-04T14:36:57;99276.45;;;17.76;43.76
66801;BME280;53703;50.326;19.122;2023-04-04T14:39:51;99278.38;;;17.75;44.82
66801;BME280;53703;50.326;19.122;2023-04-04T14:42:45;99278.98;;;17.88;43.06
66801;BME280;53703;50.326;19.122;2023-04-04T14:45:38;99280.54;;;17.78;43.88
66801;BME280;53703;50.326;19.122;2023-04-04T14:48:33;99282.36;;;17.82;43.91
66801;BME280;53703;50.326;19.122;2023-04-04T14:51:27;99279.43;;;17.78;44.50
66801;BME280;53703;50.326;19.122;2023-04-04T14:54:20;99277.16;;;17.76;42.86
66801;BME280;53703;50.326;19.122;2023-04-04T14:57:14;99282.06;;;17.78;43.35
66801;BME280;53703;50.326;19.122;2023-04-04T15:00:11;99282.30;;;17.71;42.29
66801;BME280;53703;50.326;19.122;2023-04-04T15:03:07;99277.08;;;17.74;41.34
66801;BME280;53703;50.326;19.122;2023-04-04T15:06:01;99272.43;;;17.88;43.51
66801;BME280;53703;50.326;19.122;2023-04-04T15:08:54;99274.49;;;18.01;41.78
66801;BME280;53703;50.326;19.122;2023-04-04T15:11:49;99269.21;;;18.09;41.51
66801;BME280;53703;50.326;19.122;2023-04-04T15:14:43;99267.97;;;18.01;40.99